Time;durP1;ratioP1;P1;durP2;ratioP2;P2;SDS_P1;SDS_P2;PMS_P1;PMS_P2;Temp;Humidity;BMP_temperature;BMP_pressure;BME280_temperature;BME280_humidity;BME280_pressure;Samples;Min_cycle;Max_cycle;Signal;HPM_P1;HPM_P2
2021/10/30 00:02:19;;;;;;;20.75;13.43;;;;;;;7.25;65.12;95572.91;5095659;28;20032;-80
2021/10/30 00:04:44;;;;;;;19.13;12.70;;;;;;;7.28;65.03;95561.56;5095593;28;20027;-81
2021/10/30 00:07:09;;;;;;;18.35;11.48;;;;;;;7.23;64.74;95546.31;5095222;28;20489;-81
2021/10/30 00:09:35;;;;;;;19.15;12.00;;;;;;;7.40;64.57;95566.00;5078611;28;20068;-81
2021/10/30 00:12:01;;;;;;;20.67;11.15;;;;;;;7.37;64.59;95567.00;5112256;28;20031;-81
2021/10/30 00:14:27;;;;;;;18.75;11.07;;;;;;;7.44;64.61;95572.66;5112322;28;20027;-81
2021/10/30 00:16:53;;;;;;;34.58;18.00;;;;;;;7.41;64.83;95574.56;5094822;28;20027;-81
2021/10/30 00:19:18;;;;;;;50.33;27.42;;;;;;;7.27;64.44;95583.13;5095203;28;20493;-81
2021/10/30 00:21:43;;;;;;;47.60;26.13;;;;;;;7.22;64.06;95575.66;5111800;28;20024;-80
2021/10/30 00:24:09;;;;;;;45.03;23.05;;;;;;;7.07;63.90;95541.19;5094772;28;20023;-81
2021/10/30 00:26:34;;;;;;;43.85;22.52;;;;;;;7.20;64.07;95564.56;5095045;28;20028;-80
2021/10/30 00:29:00;;;;;;;28.92;16.40;;;;;;;7.11;64.45;95542.69;5094991;28;20035;-81
2021/10/30 00:31:25;;;;;;;23.05;15.05;;;;;;;7.22;65.01;95561.91;5094846;28;20040;-81
2021/10/30 00:33:51;;;;;;;24.20;15.07;;;;;;;7.26;65.04;95558.22;5077496;28;20497;-81
2021/10/30 00:36:16;;;;;;;24.92;15.82;;;;;;;7.26;65.21;95559.03;5111909;28;20039;-81
2021/10/30 00:38:42;;;;;;;20.40;13.23;;;;;;;7.31;65.35;95561.38;5094860;28;20114;-81
2021/10/30 00:41:09;;;;;;;42.85;23.98;;;;;;;7.30;65.35;95567.44;5094847;28;20035;-81
2021/10/30 00:43:35;;;;;;;48.45;27.23;;;;;;;7.26;64.75;95556.47;5094835;28;20028;-81
2021/10/30 00:46:01;;;;;;;49.22;28.02;;;;;;;7.11;64.78;95537.50;5094631;28;20047;-81
2021/10/30 00:48:26;;;;;;;47.63;25.95;;;;;;;7.09;64.56;95531.59;5094631;28;20023;-81
2021/10/30 00:50:57;;;;;;;46.45;26.60;;;;;;;7.24;64.80;95557.47;5094458;28;20112;-81
2021/10/30 00:53:24;;;;;;;;;;;;;;;7.24;65.13;95560.03;5095329;28;20410;-81
2021/10/30 00:55:49;;;;;;;29.92;18.17;;;;;;;7.16;65.25;95553.59;5094459;28;19916;-81
2021/10/30 00:58:15;;;;;;;24.13;15.82;;;;;;;7.09;65.46;95538.50;5077691;28;20032;-81
2021/10/30 01:00:41;;;;;;;25.38;16.50;;;;;;;7.20;65.70;95556.00;5094503;28;20035;-80
2021/10/30 01:03:06;;;;;;;81.03;35.50;;;;;;;7.11;66.34;95559.94;5077241;28;20059;-81
2021/10/30 01:05:33;;;;;;;81.22;36.83;;;;;;;7.00;65.88;95537.28;5094615;28;20037;-81
2021/10/30 01:07:58;;;;;;;72.57;33.42;;;;;;;7.11;65.72;95541.84;5094475;28;20509;-81
2021/10/30 01:10:24;;;;;;;64.78;29.92;;;;;;;7.15;65.82;95543.31;5093990;28;20024;-81
2021/10/30 01:12:49;;;;;;;43.65;25.50;;;;;;;7.02;66.26;95519.97;5110846;28;20409;-81
2021/10/30 01:15:15;;;;;;;29.42;17.77;;;;;;;7.20;66.76;95543.06;5111197;28;20023;-81
2021/10/30 01:17:40;;;;;;;32.30;17.98;;;;;;;7.27;66.67;95534.03;5094281;28;20039;-81
2021/10/30 01:20:06;;;;;;;26.63;16.80;;;;;;;7.21;66.48;95516.28;5077260;28;20027;-81
2021/10/30 01:22:35;;;;;;;25.05;16.85;;;;;;;7.42;66.40;95540.91;5094004;28;20535;-81
2021/10/30 01:25:01;;;;;;;26.75;15.20;;;;;;;7.48;66.46;95540.53;5078140;28;20067;-81
2021/10/30 01:27:26;;;;;;;31.75;18.27;;;;;;;7.53;66.54;95525.56;5094278;28;20534;-81
2021/10/30 01:29:52;;;;;;;25.00;15.57;;;;;;;7.55;66.18;95521.16;5112210;28;20039;-82
2021/10/30 01:32:18;;;;;;;26.23;15.95;;;;;;;7.64;65.99;95535.28;5112186;27;20481;-81
2021/10/30 01:34:43;;;;;;;28.75;18.88;;;;;;;7.67;66.31;95536.84;5109930;28;20089;-81
2021/10/30 01:37:09;;;;;;;28.75;18.55;;;;;;;7.70;65.98;95536.66;5111020;28;20040;-81
2021/10/30 01:39:34;;;;;;;25.70;16.77;;;;;;;7.72;65.86;95542.59;5110986;28;20382;-81
2021/10/30 01:42:00;;;;;;;24.85;16.02;;;;;;;7.77;66.13;95535.38;5110541;28;20057;-81
2021/10/30 01:44:25;;;;;;;29.65;17.80;;;;;;;7.78;65.96;95534.47;5077001;28;20023;-81
2021/10/30 01:46:58;;;;;;;30.20;18.13;;;;;;;7.79;65.89;95533.53;5093854;28;20114;-82
2021/10/30 01:49:24;;;;;;;28.90;18.52;;;;;;;7.63;66.10;95499.16;5077619;28;20028;-81
2021/10/30 01:51:50;;;;;;;30.38;17.88;;;;;;;7.73;65.96;95511.44;5093453;28;20039;-82
2021/10/30 01:54:15;;;;;;;28.08;18.02;;;;;;;7.81;65.94;95526.50;5110808;28;20027;-81
2021/10/30 01:56:40;;;;;;;29.92;18.02;;;;;;;7.84;65.69;95521.97;5110765;28;20040;-81
2021/10/30 01:59:06;;;;;;;33.10;19.08;;;;;;;7.75;65.92;95517.38;5111910;28;20024;-81
2021/10/30 02:01:32;;;;;;;28.77;18.55;;;;;;;7.78;66.12;95529.28;5110387;28;20040;-82
2021/10/30 02:03:58;;;;;;;33.20;19.77;;;;;;;7.70;66.30;95528.91;5110637;28;20019;-81
2021/10/30 02:06:23;;;;;;;29.60;17.73;;;;;;;7.57;66.03;95511.53;5093614;28;20031;-81
2021/10/30 02:08:49;;;;;;;32.70;19.17;;;;;;;7.70;66.07;95534.91;5093757;28;20047;-81
2021/10/30 02:11:14;;;;;;;27.98;18.60;;;;;;;7.63;66.32;95531.00;5093220;28;20050;-81
2021/10/30 02:13:40;;;;;;;28.42;18.48;;;;;;;7.55;66.26;95530.63;5076745;28;20024;-81
2021/10/30 02:16:05;;;;;;;31.92;19.80;;;;;;;7.58;65.96;95526.13;5093368;28;20042;-81
2021/10/30 02:18:31;;;;;;;30.77;18.13;;;;;;;7.56;66.26;95529.75;5110539;28;20035;-81
2021/10/30 02:20:56;;;;;;;28.70;17.85;;;;;;;7.53;66.04;95538.50;5110142;28;20043;-81
2021/10/30 02:23:21;;;;;;;24.95;15.98;;;;;;;7.53;65.99;95532.50;5110442;28;20035;-81
2021/10/30 02:25:47;;;;;;;24.90;16.88;;;;;;;7.36;66.04;95531.75;5093370;28;20489;-81
2021/10/30 02:28:12;;;;;;;29.33;17.90;;;;;;;7.30;66.48;95533.84;5093443;28;20027;-82
2021/10/30 02:30:38;;;;;;;26.98;18.40;;;;;;;7.24;66.64;95531.63;5111274;28;20506;-81
2021/10/30 02:33:04;;;;;;;28.77;18.33;;;;;;;7.21;66.71;95537.78;5111493;28;20104;-81
2021/10/30 02:35:29;;;;;;;28.98;18.05;;;;;;;7.16;66.63;95534.66;5093286;28;20137;-81
2021/10/30 02:37:55;;;;;;;28.40;18.15;;;;;;;7.17;66.85;95541.50;5093391;28;20031;-81
2021/10/30 02:40:20;;;;;;;25.10;17.17;;;;;;;7.02;67.20;95517.38;5093109;28;20034;-81
2021/10/30 02:42:45;;;;;;;29.73;19.33;;;;;;;7.05;66.94;95522.38;5093169;28;20035;-81
2021/10/30 02:45:11;;;;;;;28.73;17.60;;;;;;;7.11;67.08;95531.50;5111558;28;20015;-81
2021/10/30 02:47:36;;;;;;;28.15;17.65;;;;;;;7.13;67.31;95538.25;5113854;28;20031;-81
2021/10/30 02:50:02;;;;;;;30.27;19.45;;;;;;;7.16;67.60;95534.66;5096998;28;20133;-82
2021/10/30 02:52:28;;;;;;;27.75;18.15;;;;;;;7.16;67.50;95534.66;5097040;28;20036;-82
2021/10/30 02:54:53;;;;;;;29.98;18.95;;;;;;;7.20;67.55;95530.16;5114141;27;20035;-81
2021/10/30 02:57:20;;;;;;;31.73;19.25;;;;;;;7.16;67.62;95530.34;5113593;28;20078;-81
2021/10/30 02:59:45;;;;;;;30.15;19.02;;;;;;;7.24;67.47;95529.84;5115037;28;20059;-81
2021/10/30 03:02:11;;;;;;;28.83;17.42;;;;;;;7.21;67.38;95522.28;5096594;28;20129;-82
2021/10/30 03:04:36;;;;;;;32.50;19.15;;;;;;;7.11;67.52;95501.34;5096768;28;20031;-81
2021/10/30 03:07:01;;;;;;;31.02;19.38;;;;;;;7.31;67.44;95527.78;5113433;28;20030;-81
2021/10/30 03:09:27;;;;;;;29.48;17.60;;;;;;;7.28;67.44;95525.38;5113720;28;20417;-81
2021/10/30 03:11:52;;;;;;;25.70;16.70;;;;;;;7.22;67.67;95516.22;5113642;28;20032;-82
2021/10/30 03:14:18;;;;;;;28.52;18.25;;;;;;;7.27;67.67;95521.09;5079653;28;20035;-82
2021/10/30 03:16:43;;;;;;;28.38;17.52;;;;;;;7.33;67.52;95536.28;5113087;28;20024;-81
2021/10/30 03:19:09;;;;;;;26.50;17.42;;;;;;;7.29;67.43;95533.00;5096693;28;20039;-81
2021/10/30 03:21:34;;;;;;;30.05;17.55;;;;;;;7.34;67.46;95537.94;5113483;28;20034;-81
2021/10/30 03:23:59;;;;;;;28.65;17.80;;;;;;;7.23;67.30;95520.47;5114624;28;20123;-81
2021/10/30 03:26:25;;;;;;;29.75;18.27;;;;;;;7.32;67.61;95529.41;5096022;28;20463;-81
2021/10/30 03:28:51;;;;;;;29.98;17.80;;;;;;;7.34;67.53;95532.75;5079361;28;20039;-81
2021/10/30 03:31:17;;;;;;;32.60;17.92;;;;;;;7.21;67.51;95511.13;5096168;28;20032;-81
2021/10/30 03:33:42;;;;;;;29.15;18.20;;;;;;;7.23;67.70;95520.47;5096050;28;20421;-81
2021/10/30 03:36:08;;;;;;;31.13;18.80;;;;;;;7.21;67.68;95516.28;5078997;28;20038;-81
2021/10/30 03:38:33;;;;;;;31.20;18.92;;;;;;;7.30;67.65;95531.25;5079212;28;20032;-81
2021/10/30 03:40:58;;;;;;;29.05;17.83;;;;;;;7.15;67.57;95513.16;5112918;28;20417;-81
2021/10/30 03:43:24;;;;;;;30.50;18.80;;;;;;;7.16;67.61;95512.25;5096067;28;20026;-82
2021/10/30 03:45:49;;;;;;;27.80;16.65;;;;;;;7.26;67.56;95528.03;5095899;28;20451;-81
2021/10/30 03:48:19;;;;;;;29.45;17.33;;;;;;;7.25;67.47;95536.72;5112913;28;20487;-81
2021/10/30 03:50:45;;;;;;;29.33;16.92;;;;;;;7.22;67.88;95541.25;5096354;28;20036;-81
2021/10/30 03:53:10;;;;;;;27.42;16.95;;;;;;;7.21;67.74;95539.56;5112969;28;20039;-81
2021/10/30 03:55:36;;;;;;;31.50;18.15;;;;;;;7.20;67.98;95545.66;5112442;28;20023;-81
2021/10/30 03:58:01;;;;;;;29.92;17.50;;;;;;;7.11;67.86;95531.50;5111858;28;20508;-81
2021/10/30 04:00:27;;;;;;;28.75;16.80;;;;;;;7.14;67.93;95534.75;5095568;28;20070;-81
2021/10/30 04:02:53;;;;;;;32.20;18.52;;;;;;;7.14;68.09;95541.66;5078656;28;20035;-81
2021/10/30 04:05:18;;;;;;;31.33;17.60;;;;;;;7.08;67.99;95539.44;5112304;28;20477;-81
2021/10/30 04:07:43;;;;;;;32.40;18.23;;;;;;;7.07;68.45;95541.19;5095493;28;20473;-81
2021/10/30 04:10:09;;;;;;;33.40;18.08;;;;;;;6.89;68.04;95506.09;5112568;28;20038;-81
2021/10/30 04:12:34;;;;;;;30.55;15.10;;;;;;;7.01;68.14;95526.03;5094839;28;20035;-81
2021/10/30 04:15:00;;;;;;;30.45;18.02;;;;;;;6.97;68.14;95534.06;5078354;28;20035;-81
2021/10/30 04:17:25;;;;;;;29.65;17.25;;;;;;;6.95;68.15;95534.13;5095446;28;20047;-81
2021/10/30 04:19:51;;;;;;;32.00;17.45;;;;;;;6.91;68.14;95519.75;5095202;28;20027;-81
2021/10/30 04:22:16;;;;;;;27.75;16.67;;;;;;;6.90;68.19;95523.22;5095044;28;20023;-81
2021/10/30 04:24:42;;;;;;;30.25;17.55;;;;;;;6.95;67.93;95531.56;5095163;28;20032;-81
2021/10/30 04:27:07;;;;;;;28.98;16.95;;;;;;;6.93;67.91;95526.47;5078391;28;20032;-81
2021/10/30 04:29:33;;;;;;;31.33;17.58;;;;;;;6.91;67.65;95537.81;5078519;28;20084;-81
2021/10/30 04:32:00;;;;;;;31.75;17.20;;;;;;;6.76;67.75;95518.03;5094676;28;20039;-81
2021/10/30 04:34:49;;;;;;;26.92;15.93;;;;;;;6.81;67.97;95540.09;5095171;28;20044;-81
2021/10/30 04:37:15;;;;;;;32.30;17.40;;;;;;;6.83;67.66;95538.25;5098763;28;20032;-81
2021/10/30 04:39:43;;;;;;;26.80;16.15;;;;;;;6.69;67.85;95508.03;5112029;28;20023;-81
2021/10/30 04:42:08;;;;;;;25.60;16.02;;;;;;;6.75;67.67;95518.94;5095121;28;20394;-81
2021/10/30 04:44:34;;;;;;;29.63;16.83;;;;;;;6.66;67.64;95505.63;5111529;28;20024;-81
2021/10/30 04:46:59;;;;;;;33.08;17.23;;;;;;;6.71;67.93;95519.13;5111839;28;20124;-81
2021/10/30 04:49:24;;;;;;;28.70;17.45;;;;;;;6.63;68.19;95516.16;5111818;28;20023;-81
2021/10/30 04:51:50;;;;;;;28.00;16.92;;;;;;;6.63;68.03;95512.69;5094714;28;20038;-81
2021/10/30 04:54:15;;;;;;;28.73;17.70;;;;;;;6.67;67.93;95522.78;5111329;28;20028;-81
2021/10/30 04:56:41;;;;;;;34.88;21.30;;;;;;;6.54;68.04;95510.66;5111656;28;20459;-81
2021/10/30 04:59:06;;;;;;;37.47;21.17;;;;;;;6.58;68.17;95522.47;5112726;28;20023;-81
2021/10/30 05:01:32;;;;;;;29.73;18.75;;;;;;;6.57;68.02;95526.78;5094379;28;20490;-82
2021/10/30 05:03:57;;;;;;;32.38;19.73;;;;;;;6.32;67.89;95488.59;5112518;28;20055;-81
2021/10/30 05:06:22;;;;;;;27.42;16.83;;;;;;;6.37;67.82;95509.81;5094447;28;20031;-82
2021/10/30 05:08:48;;;;;;;31.08;18.67;;;;;;;6.38;68.06;95529.59;5111525;28;20024;-81
2021/10/30 05:11:13;;;;;;;28.00;17.70;;;;;;;6.32;68.10;95527.31;5094435;28;20093;-80
2021/10/30 05:13:39;;;;;;;29.50;16.70;;;;;;;6.25;68.17;95531.16;5111118;28;20035;-81
2021/10/30 05:16:04;;;;;;;29.55;16.38;;;;;;;6.28;68.22;95533.56;5111287;28;20092;-81
2021/10/30 05:18:30;;;;;;;30.58;16.90;;;;;;;6.20;68.39;95518.50;5094350;28;20027;-81
2021/10/30 05:20:56;;;;;;;31.10;17.55;;;;;;;6.24;68.56;95526.91;5111115;28;20032;-81
2021/10/30 05:23:22;;;;;;;28.65;17.02;;;;;;;6.12;68.48;95506.94;5093826;28;20038;-81
2021/10/30 05:25:48;;;;;;;26.65;17.05;;;;;;;6.17;68.68;95525.59;5111174;28;20465;-81
2021/10/30 05:28:20;;;;;;;31.52;18.63;;;;;;;6.08;68.76;95524.34;5093933;28;20063;-82
2021/10/30 05:30:46;;;;;;;28.38;16.58;;;;;;;6.18;69.04;95540.97;5110986;28;20039;-82
2021/10/30 05:33:11;;;;;;;28.15;17.40;;;;;;;6.08;69.05;95524.34;5093621;28;20409;-82
2021/10/30 05:35:37;;;;;;;25.52;15.90;;;;;;;5.99;68.58;95511.91;5110916;28;20040;-82
2021/10/30 05:38:02;;;;;;;26.33;16.65;;;;;;;5.97;69.03;95521.50;5110978;28;20032;-81
2021/10/30 05:40:28;;;;;;;28.38;16.25;;;;;;;6.11;68.77;95536.25;5077002;28;20023;-82
2021/10/30 05:42:53;;;;;;;25.73;17.30;;;;;;;6.05;68.51;95537.41;5093473;28;20024;-82
2021/10/30 05:45:20;;;;;;;25.05;16.05;;;;;;;5.90;68.91;95504.63;5088487;28;20038;-82
2021/10/30 05:47:46;;;;;;;25.65;16.63;;;;;;;5.79;68.84;95495.75;5089216;28;20031;-81
2021/10/30 05:50:11;;;;;;;25.55;16.42;;;;;;;5.94;69.05;95509.59;5093851;28;20024;-81
2021/10/30 05:52:37;;;;;;;27.35;16.92;;;;;;;5.94;69.26;95511.34;5091847;28;20438;-82
2021/10/30 05:55:02;;;;;;;30.75;16.95;;;;;;;6.13;69.36;95537.81;5110869;28;20516;-82
2021/10/30 05:57:28;;;;;;;27.67;16.58;;;;;;;6.19;69.08;95527.16;5110921;28;20039;-81
2021/10/30 05:59:53;;;;;;;23.45;15.55;;;;;;;6.30;68.84;95536.09;5110736;28;20036;-82
2021/10/30 06:02:19;;;;;;;23.58;15.90;;;;;;;6.22;68.64;95511.50;5093482;28;20478;-81
2021/10/30 06:04:45;;;;;;;24.70;16.83;;;;;;;6.49;68.06;95537.56;5112542;28;20023;-82
2021/10/30 06:07:11;;;;;;;25.88;15.38;;;;;;;6.56;67.50;95538.03;5094951;28;20103;-81
2021/10/30 06:09:36;;;;;;;24.73;15.48;;;;;;;6.61;67.69;95543.78;5111107;28;20036;-82
2021/10/30 06:12:02;;;;;;;24.73;14.85;;;;;;;6.65;67.30;95545.28;5094258;28;20027;-81
2021/10/30 06:14:28;;;;;;;25.42;15.57;;;;;;;6.74;67.10;95546.50;5113440;28;20092;-81
2021/10/30 06:16:54;;;;;;;25.15;16.15;;;;;;;6.77;66.80;95541.19;5094847;28;20020;-81
2021/10/30 06:19:19;;;;;;;21.25;13.45;;;;;;;6.82;66.42;95546.91;5111055;28;20045;-81
2021/10/30 06:21:45;;;;;;;20.83;14.15;;;;;;;6.84;66.32;95545.06;5098537;28;20085;-82
2021/10/30 06:24:10;;;;;;;23.25;13.68;;;;;;;6.93;65.73;95541.13;5098255;28;20039;-81
2021/10/30 06:26:36;;;;;;;23.00;13.80;;;;;;;6.87;65.59;95524.22;5114852;28;20039;-82
2021/10/30 06:29:02;;;;;;;23.13;13.13;;;;;;;6.97;65.36;95534.88;5080251;28;20031;-81
2021/10/30 06:31:28;;;;;;;23.48;13.35;;;;;;;6.89;65.05;95506.91;5097492;28;20055;-82
2021/10/30 06:33:54;;;;;;;24.60;13.43;;;;;;;7.11;64.89;95527.19;5097432;28;20032;-82
2021/10/30 06:36:19;;;;;;;19.02;12.80;;;;;;;7.47;65.21;95528.53;5097402;28;20042;-81
2021/10/30 06:38:45;;;;;;;21.05;13.40;;;;;;;8.22;67.70;95542.09;5114014;28;20028;-82
2021/10/30 06:41:12;;;;;;;18.17;11.57;;;;;;;8.81;67.82;95528.09;5114407;28;20052;-82
2021/10/30 06:43:38;;;;;;;24.20;14.48;;;;;;;9.97;73.14;95550.59;5097765;28;20424;-81
2021/10/30 06:46:04;;;;;;;19.65;12.27;;;;;;;10.69;63.99;95554.19;5097333;28;20039;-81
2021/10/30 06:48:29;;;;;;;18.85;13.27;;;;;;;11.05;59.49;95544.69;5097734;28;20513;-82
2021/10/30 06:50:56;;;;;;;17.58;12.63;;;;;;;11.21;58.23;95548.78;5080660;28;20421;-81
2021/10/30 06:53:21;;;;;;;19.55;12.30;;;;;;;11.31;59.91;95532.38;5113948;28;20085;-81
2021/10/30 06:55:47;;;;;;;21.75;12.70;;;;;;;11.74;61.26;95528.31;5113926;28;20035;-82
2021/10/30 06:58:13;;;;;;;17.77;11.65;;;;;;;11.91;57.64;95542.69;5096663;28;20027;-82
2021/10/30 07:00:38;;;;;;;17.52;11.88;;;;;;;12.06;57.77;95538.88;5096890;28;20470;-82
2021/10/30 07:03:06;;;;;;;15.43;11.07;;;;;;;12.16;56.63;95523.38;5113792;28;20031;-82
2021/10/30 07:05:31;;;;;;;17.02;12.07;;;;;;;12.75;59.06;95525.63;5113879;28;20488;-82
2021/10/30 07:07:57;;;;;;;15.10;11.65;;;;;;;13.14;58.89;95518.16;5096306;28;20042;-83
2021/10/30 07:10:22;;;;;;;16.67;11.95;;;;;;;13.62;58.31;95549.00;5096698;28;20027;-82
2021/10/30 07:12:48;;;;;;;16.67;11.30;;;;;;;13.92;57.49;95544.78;5114044;28;20039;-82
2021/10/30 07:15:13;;;;;;;16.38;11.85;;;;;;;13.95;56.18;95528.84;5113865;28;20030;-82
2021/10/30 07:17:39;;;;;;;18.17;12.30;;;;;;;14.07;54.73;95544.31;5113700;28;20027;-83
2021/10/30 07:20:06;;;;;;;19.35;13.32;;;;;;;14.07;55.46;95506.94;5096495;28;20032;-81
2021/10/30 07:22:31;;;;;;;19.58;12.95;;;;;;;14.36;53.68;95538.38;5113609;28;20027;-83
2021/10/30 07:24:58;;;;;;;22.25;13.57;;;;;;;14.39;52.65;95532.88;5114441;28;20028;-82
2021/10/30 07:27:23;;;;;;;15.50;10.23;;;;;;;14.18;45.85;95532.97;5096017;28;20481;-81
2021/10/30 07:29:49;;;;;;;17.40;10.20;;;;;;;14.15;49.93;95530.63;5116127;28;20131;-82
2021/10/30 07:32:18;;;;;;;14.40;9.95;;;;;;;14.37;47.38;95529.56;5115035;28;20473;-83
2021/10/30 07:34:44;;;;;;;12.45;9.65;;;;;;;14.41;46.32;95519.69;5080930;28;20126;-83
2021/10/30 07:37:09;;;;;;;15.95;9.77;;;;;;;14.38;43.96;95528.63;5113600;28;20390;-83
2021/10/30 07:39:35;;;;;;;11.95;9.40;;;;;;;14.20;42.36;95525.78;5096655;28;20023;-83
2021/10/30 07:42:01;;;;;;;12.65;9.70;;;;;;;13.84;42.99;95516.69;5114355;28;20404;-83
2021/10/30 07:44:27;;;;;;;13.00;9.13;;;;;;;13.62;43.13;95528.97;5096930;28;20035;-83
2021/10/30 07:46:52;;;;;;;15.10;11.30;;;;;;;13.45;43.93;95519.09;5095966;28;20032;-84
2021/10/30 07:49:18;;;;;;;14.18;10.55;;;;;;;13.26;44.89;95527.63;5079134;28;20039;-81
2021/10/30 07:51:43;;;;;;;16.15;10.80;;;;;;;13.19;45.57;95527.25;5095767;28;20023;-83
2021/10/30 07:54:09;;;;;;;15.38;11.25;;;;;;;13.11;44.91;95527.06;5112873;28;20039;-83
2021/10/30 07:56:34;;;;;;;16.40;12.25;;;;;;;12.81;45.69;95521.72;5095497;28;20023;-82
2021/10/30 07:59:00;;;;;;;17.50;11.50;;;;;;;12.69;45.97;95519.16;5112902;28;20413;-83
2021/10/30 08:01:25;;;;;;;15.93;10.85;;;;;;;12.42;47.11;95523.94;5078797;28;20474;-83
2021/10/30 08:03:51;;;;;;;16.75;12.38;;;;;;;12.26;48.26;95517.34;5112603;28;20409;-83
2021/10/30 08:06:16;;;;;;;19.45;13.07;;;;;;;12.32;48.48;95510.00;5114089;28;20500;-82
2021/10/30 08:08:41;;;;;;;33.10;17.77;;;;;;;12.31;48.99;95493.50;5096079;28;20537;-83
2021/10/30 08:11:07;;;;;;;24.75;12.73;;;;;;;12.35;48.68;95487.13;5095736;28;20043;-83
2021/10/30 08:13:32;;;;;;;14.95;11.15;;;;;;;12.43;48.02;95508.19;5078690;28;20035;-84
2021/10/30 08:15:58;;;;;;;18.35;12.10;;;;;;;12.32;49.23;95512.59;5095223;28;20379;-84
2021/10/30 08:18:24;;;;;;;17.33;10.60;;;;;;;12.32;48.20;95494.38;5095558;28;20031;-82
2021/10/30 08:20:50;;;;;;;15.65;10.88;;;;;;;12.38;48.26;95499.09;5112559;28;20059;-83
2021/10/30 08:23:15;;;;;;;17.90;11.82;;;;;;;12.62;47.88;95504.09;5094813;28;20457;-82
2021/10/30 08:25:41;;;;;;;18.13;12.88;;;;;;;12.74;47.63;95496.16;5113655;28;20039;-83
2021/10/30 08:28:06;;;;;;;15.27;10.35;;;;;;;12.78;46.25;95503.72;5095107;28;20035;-83
2021/10/30 08:30:32;;;;;;;15.27;10.60;;;;;;;12.87;45.77;95505.56;5095097;28;20173;-83
2021/10/30 08:32:57;;;;;;;17.55;10.90;;;;;;;13.01;44.89;95492.25;5094866;28;20028;-83
2021/10/30 08:35:23;;;;;;;15.80;10.75;;;;;;;13.09;45.22;95478.56;5111724;28;20043;-83
2021/10/30 08:37:49;;;;;;;13.10;9.40;;;;;;;13.31;44.66;95494.13;5094921;28;20029;-83
2021/10/30 08:40:14;;;;;;;15.07;10.75;;;;;;;13.43;44.92;95494.91;5113170;28;20023;-82
2021/10/30 08:42:48;;;;;;;16.17;11.02;;;;;;;13.62;43.85;95494.19;5094538;28;20089;-83
2021/10/30 08:45:14;;;;;;;15.43;11.27;;;;;;;13.62;43.86;95486.34;5095380;28;20031;-83
2021/10/30 08:47:41;;;;;;;18.00;11.57;;;;;;;13.70;43.67;95478.69;5095165;28;20024;-83
2021/10/30 08:50:07;;;;;;;18.65;12.70;;;;;;;13.69;42.96;95490.13;5078119;28;20031;-82
2021/10/30 08:52:33;;;;;;;19.20;12.05;;;;;;;13.73;42.53;95488.88;5111488;28;20042;-84
2021/10/30 08:55:02;;;;;;;15.70;11.32;;;;;;;13.67;43.00;95478.97;5112966;28;20031;-83
2021/10/30 08:57:28;;;;;;;15.27;10.95;;;;;;;13.62;43.42;95460.25;5094714;28;20531;-84
2021/10/30 08:59:53;;;;;;;16.90;11.70;;;;;;;13.85;43.47;95471.38;5077657;28;20035;-83
2021/10/30 09:02:34;;;;;;;21.67;13.63;;;;;;;14.05;42.18;95464.44;5077526;28;20596;-83
2021/10/30 09:05:16;;;;;;;18.53;12.93;;;;;;;13.92;42.30;95446.38;5111205;28;20036;-83
2021/10/30 09:07:42;;;;;;;19.27;13.68;;;;;;;14.08;41.00;95474.59;5095688;28;20043;-84
2021/10/30 09:10:19;;;;;;;18.63;13.10;;;;;;;13.95;40.91;95463.56;5094522;28;20035;-83
2021/10/30 09:12:57;;;;;;;17.17;11.82;;;;;;;14.08;41.43;95459.75;5111531;28;20489;-83
2021/10/30 09:15:37;;;;;;;20.55;13.27;;;;;;;14.24;41.21;95461.06;5095554;28;20433;-83
2021/10/30 09:18:04;;;;;;;20.25;13.95;;;;;;;14.24;41.67;95451.41;5111315;28;20098;-84
2021/10/30 09:20:34;;;;;;;17.00;12.60;;;;;;;14.31;39.69;95449.09;5094276;28;20165;-84
2021/10/30 09:22:59;;;;;;;18.80;12.52;;;;;;;14.27;41.35;95459.00;5111333;28;20046;-83
2021/10/30 09:25:25;;;;;;;21.98;14.63;;;;;;;14.35;41.29;95449.63;5112475;28;20417;-84
2021/10/30 09:27:53;;;;;;;20.13;13.32;;;;;;;14.38;40.22;95447.59;5112140;28;20417;-84
2021/10/30 09:30:21;;;;;;;18.98;12.45;;;;;;;14.36;40.12;95446.09;5112322;28;20028;-83
2021/10/30 09:32:51;;;;;;;64.18;30.55;;;;;;;14.24;41.08;95416.63;5093752;28;20046;-83
2021/10/30 09:35:21;;;;;;;23.65;14.00;;;;;;;14.48;40.80;95443.19;5093713;28;20516;-83
2021/10/30 09:37:46;;;;;;;20.17;14.02;;;;;;;14.52;39.96;95430.72;5077017;28;20458;-83
2021/10/30 09:40:22;;;;;;;21.30;13.50;;;;;;;14.58;40.50;95432.78;5093897;28;20035;-83
2021/10/30 09:42:52;;;;;;;18.05;11.70;;;;;;;14.36;38.80;95401.66;5094327;28;20028;-83
2021/10/30 09:45:18;;;;;;;20.02;13.10;;;;;;;14.36;39.73;95425.16;5093642;28;20026;-83
2021/10/30 09:47:45;;;;;;;20.13;14.10;;;;;;;14.14;40.66;95411.38;5093892;28;20044;-83
2021/10/30 09:50:29;;;;;;;18.42;12.48;;;;;;;14.34;40.85;95425.28;5110807;28;20497;-83
2021/10/30 09:52:54;;;;;;;17.60;12.27;;;;;;;14.40;40.55;95422.16;5111764;28;20040;-81
2021/10/30 09:55:27;;;;;;;20.42;13.23;;;;;;;14.45;40.67;95416.50;5109913;28;20031;-82
2021/10/30 09:58:03;;;;;;;17.33;12.75;;;;;;;14.40;40.46;95411.72;5093341;28;20039;-83
2021/10/30 10:00:29;;;;;;;19.42;13.32;;;;;;;14.39;40.76;95398.75;5110424;28;20028;-83
2021/10/30 10:03:00;;;;;;;19.13;12.30;;;;;;;14.43;40.73;95398.38;5110435;28;20531;-82
2021/10/30 10:05:27;;;;;;;20.35;12.40;;;;;;;14.40;40.28;95376.88;5093876;28;20031;-83
2021/10/30 10:07:52;;;;;;;19.23;12.88;;;;;;;14.57;38.98;95402.41;5110398;28;20084;-82
2021/10/30 10:10:18;;;;;;;19.08;12.25;;;;;;;14.47;39.74;95386.66;5093363;28;20024;-83
2021/10/30 10:12:44;;;;;;;18.48;12.30;;;;;;;14.53;39.86;95391.38;5093264;28;20113;-83
2021/10/30 10:15:09;;;;;;;20.60;12.30;;;;;;;14.67;40.29;95384.09;5093676;28;20039;-83
2021/10/30 10:17:34;;;;;;;19.73;13.88;;;;;;;14.67;39.80;95371.81;5093554;28;20046;-82
2021/10/30 10:20:04;;;;;;;22.25;12.85;;;;;;;14.65;40.55;95391.22;5077899;28;20031;-83
2021/10/30 10:22:30;;;;;;;18.98;12.90;;;;;;;14.48;40.79;95385.69;5094155;28;20032;-83
2021/10/30 10:25:31;;;;;;;17.52;12.35;;;;;;;14.57;41.15;95381.47;5093447;28;20036;-83
2021/10/30 10:28:20;;;;;;;16.00;11.88;;;;;;;14.67;41.52;95371.00;5093331;28;20474;-82
2021/10/30 10:30:52;;;;;;;20.02;12.43;;;;;;;14.67;40.32;95378.84;5093195;28;20038;-83
2021/10/30 10:33:17;;;;;;;17.90;12.40;;;;;;;14.58;40.06;95350.94;5110279;28;20032;-82
2021/10/30 10:36:18;;;;;;;17.33;11.30;;;;;;;14.69;39.10;95374.31;5093307;28;20497;-82
2021/10/30 10:38:53;;;;;;;15.20;10.50;;;;;;;14.65;38.87;95376.34;5093697;27;20054;-82
2021/10/30 10:41:37;;;;;;;16.60;11.70;;;;;;;14.52;40.23;95373.22;5120330;27;20084;-83
2021/10/30 10:44:13;;;;;;;17.00;11.88;;;;;;;14.41;41.22;95368.09;5125843;27;20024;-83
2021/10/30 10:46:41;;;;;;;17.60;12.35;;;;;;;14.31;41.06;95360.22;5089254;28;20516;-82
2021/10/30 10:55:02;;;;;;;16.48;12.18;;;;;;;14.39;41.61;95354.34;5130313;28;20032;-82
2021/10/30 10:57:32;;;;;;;18.17;12.00;;;;;;;14.45;41.06;95354.59;5129347;27;20039;-82
2021/10/30 11:00:01;;;;;;;15.98;10.27;;;;;;;14.42;40.33;95344.41;5096706;28;20035;-83
2021/10/30 11:02:31;;;;;;;16.58;11.05;;;;;;;14.34;40.77;95330.38;5130398;28;20059;-82
2021/10/30 11:05:08;;;;;;;20.00;11.05;;;;;;;14.55;40.84;95348.59;5113337;28;20031;-82
2021/10/30 11:07:37;;;;;;;16.30;9.82;;;;;;;14.58;39.44;95341.28;5120601;27;20100;-83
2021/10/30 11:10:11;;;;;;;15.43;9.00;;;;;;;14.59;39.73;95337.69;5114615;27;20058;-81
2021/10/30 11:12:37;;;;;;;14.65;11.05;;;;;;;14.50;39.44;95310.56;5095247;27;20123;-83
2021/10/30 11:15:10;;;;;;;13.23;10.48;;;;;;;14.57;39.68;95317.88;5102672;27;20027;-82
2021/10/30 11:17:52;;;;;;;11.98;9.65;;;;;;;14.79;39.46;95329.84;5125109;27;20042;-82
2021/10/30 11:20:18;;;;;;;14.60;9.98;;;;;;;14.79;38.97;95335.06;5120357;27;20409;-82
2021/10/30 11:22:58;;;;;;;19.65;10.77;;;;;;;14.72;39.58;95332.19;5095348;28;20024;-82
2021/10/30 11:25:23;;;;;;;13.98;10.98;;;;;;;14.69;39.95;95330.69;5077824;28;20031;-82
2021/10/30 11:27:56;;;;;;;15.27;10.15;;;;;;;14.51;40.27;95319.25;5113141;28;20028;-82